createdAt,value
2022-11-21T00:00:53.229Z,6.72
2022-11-21T00:03:20.286Z,6.57
2022-11-21T00:05:49.092Z,6.85
2022-11-21T00:08:18.935Z,5.50
2022-11-21T00:10:45.894Z,5.63
2022-11-21T00:13:18.675Z,5.30
2022-11-21T00:15:46.140Z,4.50
2022-11-21T00:18:13.061Z,5.45
2022-11-21T00:20:40.642Z,5.60
2022-11-21T00:23:08.092Z,5.88
2022-11-21T00:25:35.129Z,4.47
2022-11-21T00:28:02.347Z,5.40
2022-11-21T00:30:29.132Z,5.50
2022-11-21T00:32:55.799Z,5.57
2022-11-21T00:35:22.563Z,5.47
2022-11-21T00:37:50.857Z,7.28
2022-11-21T00:40:18.267Z,7.55
2022-11-21T00:42:45.063Z,7.55
2022-11-21T00:45:12.049Z,7.53
2022-11-21T00:47:38.959Z,7.18
2022-11-21T00:50:06.129Z,6.00
2022-11-21T00:52:32.834Z,6.97
2022-11-21T00:54:59.503Z,6.30
2022-11-21T00:57:26.143Z,5.85
2022-11-21T00:59:52.747Z,5.20
2022-11-21T01:02:19.566Z,6.78
2022-11-21T01:04:46.238Z,6.07
2022-11-21T01:07:14.691Z,6.78
2022-11-21T01:09:41.590Z,6.78
2022-11-21T01:12:08.199Z,7.10
2022-11-21T01:14:34.946Z,6.55
2022-11-21T01:17:01.552Z,6.88
2022-11-21T01:19:28.407Z,6.88
2022-11-21T01:21:55.058Z,7.63
2022-11-21T01:24:21.920Z,8.25
2022-11-21T01:26:51.044Z,9.32
2022-11-21T01:29:17.958Z,9.45
2022-11-21T01:31:44.701Z,8.90
2022-11-21T01:34:11.894Z,9.77
2022-11-21T01:36:38.573Z,8.80
2022-11-21T01:39:07.320Z,9.35
2022-11-21T01:41:39.725Z,8.10
2022-11-21T01:44:46.910Z,7.65
2022-11-21T01:47:13.437Z,8.80
2022-11-21T01:49:41.638Z,8.25
2022-11-21T01:52:12.342Z,7.93
2022-11-21T01:54:45.176Z,8.82
2022-11-21T01:57:41.306Z,8.85
2022-11-21T02:00:16.107Z,9.55
2022-11-21T02:02:46.450Z,9.93
2022-11-21T02:05:17.734Z,9.90
2022-11-21T02:07:47.417Z,9.10
2022-11-21T02:10:16.199Z,8.82
2022-11-21T02:12:56.417Z,9.27
2022-11-21T02:15:27.019Z,8.18
2022-11-21T02:17:53.946Z,8.02
2022-11-21T02:20:26.164Z,7.25
2022-11-21T02:23:07.722Z,5.40
2022-11-21T02:25:37.144Z,5.72
2022-11-21T02:28:09.581Z,6.10
2022-11-21T02:30:39.675Z,5.38
2022-11-21T02:33:07.212Z,5.70
2022-11-21T02:35:36.640Z,5.05
2022-11-21T02:38:25.537Z,5.40
2022-11-21T02:41:12.063Z,4.05
2022-11-21T02:43:45.162Z,2.72
2022-11-21T02:46:11.801Z,3.70
2022-11-21T02:48:39.410Z,4.57
2022-11-21T02:51:06.312Z,3.85
2022-11-21T02:53:33.011Z,3.47
2022-11-21T02:55:59.684Z,2.40
2022-11-21T02:58:26.766Z,3.45
2022-11-21T03:00:55.217Z,3.08
2022-11-21T03:03:22.831Z,1.35
2022-11-21T03:05:49.481Z,1.27
2022-11-21T03:08:16.222Z,1.58
2022-11-21T03:10:43.035Z,0.80
2022-11-21T03:13:09.566Z,0.70
2022-11-21T03:15:36.407Z,0.57
2022-11-21T03:18:03.967Z,0.40
2022-11-21T03:20:32.125Z,0.50
2022-11-21T03:22:58.816Z,0.30
2022-11-21T03:25:25.425Z,0.43
2022-11-21T03:27:56.281Z,0.57
2022-11-21T03:30:25.394Z,0.47
2022-11-21T03:32:55.512Z,0.50
2022-11-21T03:35:22.212Z,0.40
2022-11-21T03:37:49.085Z,0.40
2022-11-21T03:40:15.765Z,0.50
2022-11-21T03:42:42.409Z,0.45
2022-11-21T03:45:09.453Z,0.45
2022-11-21T03:47:37.031Z,0.40
2022-11-21T03:50:03.836Z,0.40
2022-11-21T03:52:30.686Z,0.50
2022-11-21T03:54:57.294Z,0.50
2022-11-21T03:57:23.942Z,0.40
2022-11-21T03:59:50.585Z,0.50
2022-11-21T04:02:17.240Z,0.40
2022-11-21T04:04:43.821Z,0.40
2022-11-21T04:07:10.530Z,0.60
2022-11-21T04:09:37.170Z,0.60
2022-11-21T04:12:07.775Z,0.63
2022-11-21T04:14:35.092Z,0.60
2022-11-21T04:17:02.071Z,0.60
2022-11-21T04:19:28.779Z,0.43
2022-11-21T04:21:55.360Z,0.50
2022-11-21T04:24:22.255Z,0.50
2022-11-21T04:26:49.146Z,0.50
2022-11-21T04:29:15.782Z,0.40
2022-11-21T04:31:42.593Z,0.40
2022-11-21T04:34:09.137Z,0.47
2022-11-21T04:36:35.754Z,0.40
2022-11-21T04:39:02.622Z,0.47
2022-11-21T04:41:29.333Z,0.30
2022-11-21T04:43:56.439Z,0.40
2022-11-21T04:46:23.037Z,0.40
2022-11-21T04:48:49.640Z,0.50
2022-11-21T04:51:16.217Z,0.30
2022-11-21T04:53:43.458Z,0.20
2022-11-21T04:56:10.236Z,0.20
2022-11-21T04:58:37.010Z,0.20
2022-11-21T05:01:08.172Z,0.30
2022-11-21T05:03:35.840Z,0.20
2022-11-21T05:06:02.516Z,0.20
2022-11-21T05:08:29.097Z,0.13
2022-11-21T05:11:14.510Z,0.10
2022-11-21T05:13:41.141Z,0.10
2022-11-21T05:16:07.753Z,0.10
2022-11-21T05:18:34.446Z,0.15
2022-11-21T05:21:02.716Z,0.10
2022-11-21T05:23:29.408Z,0.10
2022-11-21T05:25:56.282Z,0.20
2022-11-21T05:28:23.094Z,0.15
2022-11-21T05:30:49.769Z,0.10
2022-11-21T05:33:16.674Z,0.10
2022-11-21T05:35:43.890Z,0.10
2022-11-21T05:38:11.213Z,0.10
2022-11-21T05:40:37.863Z,0.10
2022-11-21T05:43:22.943Z,0.10
2022-11-21T05:45:53.248Z,0.20
2022-11-21T05:48:19.826Z,0.10
2022-11-21T05:50:49.802Z,0.10
2022-11-21T05:53:17.084Z,0.05
2022-11-21T05:55:44.331Z,0.20
2022-11-21T05:58:11.526Z,0.20
2022-11-21T06:00:38.664Z,0.10
2022-11-21T06:03:24.882Z,0.10
2022-11-21T06:05:51.758Z,0.10
2022-11-21T06:08:19.023Z,0.00
2022-11-21T06:10:45.722Z,0.10
2022-11-21T06:13:24.474Z,0.20
2022-11-21T06:16:00.505Z,0.10
2022-11-21T06:18:28.334Z,0.10
2022-11-21T06:21:00.568Z,0.10
2022-11-21T06:23:27.122Z,0.10
2022-11-21T06:26:01.813Z,0.03
2022-11-21T06:28:32.446Z,0.20
2022-11-21T06:31:03.694Z,0.03
2022-11-21T06:33:30.464Z,1.95
2022-11-21T06:35:57.062Z,0.10
2022-11-21T06:38:23.754Z,0.05
2022-11-21T06:40:50.368Z,0.10
2022-11-21T06:43:16.960Z,0.00
2022-11-21T06:45:43.591Z,0.10
2022-11-21T06:48:10.150Z,0.10
2022-11-21T06:50:39.062Z,0.20
2022-11-21T06:53:06.113Z,0.10
2022-11-21T06:55:32.757Z,0.10
2022-11-21T06:58:00.207Z,0.10
2022-11-21T07:00:28.212Z,0.10
2022-11-21T07:03:00.099Z,0.00
2022-11-21T07:05:29.859Z,0.00
2022-11-21T07:08:00.398Z,0.00
2022-11-21T07:10:27.781Z,0.00
2022-11-21T07:13:17.013Z,0.10
2022-11-21T07:15:44.677Z,0.20
2022-11-21T07:18:11.952Z,0.10
2022-11-21T07:20:39.485Z,0.20
2022-11-21T07:23:06.906Z,0.20
2022-11-21T07:25:36.643Z,0.30
2022-11-21T07:28:04.260Z,0.20
2022-11-21T07:30:30.863Z,0.20
2022-11-21T07:32:58.675Z,0.20
2022-11-21T07:35:26.082Z,0.40
2022-11-21T07:37:52.887Z,0.30
2022-11-21T07:40:20.220Z,0.20
2022-11-21T07:42:47.865Z,0.20
2022-11-21T07:45:15.512Z,0.30
2022-11-21T07:47:42.999Z,0.20
2022-11-21T07:50:11.793Z,0.20
2022-11-21T07:52:38.917Z,0.20
2022-11-21T07:55:06.245Z,0.20
2022-11-21T07:57:33.317Z,0.20
2022-11-21T07:59:59.924Z,0.10
2022-11-21T08:02:28.491Z,0.10
2022-11-21T08:04:55.415Z,0.10
2022-11-21T08:07:23.801Z,0.10
2022-11-21T08:09:50.546Z,0.10
2022-11-21T08:12:17.265Z,0.10
2022-11-21T08:14:43.874Z,0.20
2022-11-21T08:17:10.473Z,0.15
2022-11-21T08:19:37.050Z,0.30
2022-11-21T08:22:03.719Z,0.10
2022-11-21T08:24:30.541Z,0.10
2022-11-21T08:26:59.396Z,0.17
2022-11-21T08:29:27.174Z,0.00
2022-11-21T08:31:54.000Z,0.10
2022-11-21T08:34:20.663Z,0.10
2022-11-21T08:36:47.223Z,0.20
2022-11-21T08:39:13.898Z,0.00
2022-11-21T08:41:58.876Z,0.00
2022-11-21T08:44:25.903Z,0.30
2022-11-21T08:46:53.163Z,0.10
2022-11-21T08:49:19.820Z,0.10
2022-11-21T08:51:49.521Z,0.20
2022-11-21T08:54:20.066Z,0.00
2022-11-21T08:56:47.199Z,0.10
2022-11-21T08:59:13.766Z,0.10
2022-11-21T09:01:40.466Z,0.10
2022-11-21T09:04:07.668Z,0.20
2022-11-21T09:06:35.178Z,0.10
2022-11-21T09:09:01.884Z,0.10
2022-11-21T09:11:28.575Z,0.10
2022-11-21T09:14:27.521Z,0.00
2022-11-21T09:17:12.609Z,0.10
2022-11-21T09:19:39.368Z,0.10
2022-11-21T09:22:06.119Z,0.10
2022-11-21T09:24:32.887Z,0.10
2022-11-21T09:26:59.486Z,0.20
2022-11-21T09:29:26.534Z,0.20
2022-11-21T09:31:53.400Z,0.20
2022-11-21T09:34:20.438Z,0.20
2022-11-21T09:36:47.147Z,0.10
2022-11-21T09:39:13.735Z,0.20
2022-11-21T09:41:53.007Z,0.10
2022-11-21T09:44:56.916Z,0.10
2022-11-21T09:47:32.458Z,0.20
2022-11-21T09:50:00.854Z,0.20
2022-11-21T09:52:44.809Z,0.20
2022-11-21T09:55:20.357Z,0.20
2022-11-21T09:57:49.572Z,1.33
2022-11-21T10:00:20.985Z,0.40
2022-11-21T10:02:48.288Z,0.20
2022-11-21T10:05:15.681Z,0.28
2022-11-21T10:07:43.271Z,0.30
2022-11-21T10:10:36.029Z,0.30
2022-11-21T10:13:35.129Z,0.40
2022-11-21T10:16:39.226Z,0.30
2022-11-21T10:19:23.324Z,0.30
2022-11-21T10:21:52.828Z,0.32
2022-11-21T10:24:25.610Z,0.40
2022-11-21T10:26:58.737Z,0.40
2022-11-21T10:29:32.572Z,0.55
2022-11-21T10:32:04.077Z,1.20
2022-11-21T10:34:37.872Z,0.50
2022-11-21T10:37:42.350Z,0.60
2022-11-21T10:40:26.267Z,0.98
2022-11-21T10:43:50.472Z,0.60
2022-11-21T10:46:17.042Z,0.50
2022-11-21T10:48:53.934Z,0.70
2022-11-21T10:51:27.809Z,0.50
2022-11-21T10:54:24.707Z,0.70
2022-11-21T10:56:54.084Z,0.70
2022-11-21T10:59:30.076Z,0.85
2022-11-21T11:02:22.158Z,0.50
2022-11-21T11:04:52.335Z,0.40
2022-11-21T11:07:25.791Z,0.40
2022-11-21T11:09:53.466Z,0.40
2022-11-21T11:12:46.626Z,0.40
2022-11-21T11:15:25.111Z,0.30
2022-11-21T11:18:09.074Z,0.50
2022-11-21T11:20:39.480Z,0.50
2022-11-21T11:23:35.266Z,0.40
2022-11-21T11:26:01.858Z,0.50
2022-11-21T11:28:35.895Z,0.50
2022-11-21T11:31:03.251Z,5.38
2022-11-21T11:33:32.088Z,0.50
2022-11-21T11:36:15.708Z,0.45
2022-11-21T11:38:55.826Z,0.60
2022-11-21T11:42:17.517Z,0.80
2022-11-21T11:45:32.385Z,0.40
2022-11-21T11:48:10.548Z,0.80
2022-11-21T11:50:44.476Z,0.30
2022-11-21T11:53:16.687Z,0.40
2022-11-21T11:55:54.760Z,0.40
2022-11-21T11:58:38.926Z,0.40
2022-11-21T12:01:11.769Z,0.77
2022-11-21T12:03:54.970Z,0.40
2022-11-21T12:07:41.103Z,0.40
2022-11-21T12:09:34.875Z,0.30
2022-11-21T12:12:17.147Z,0.40
2022-11-21T12:15:24.226Z,0.50
2022-11-21T12:18:09.333Z,0.35
2022-11-21T12:20:54.343Z,0.20
2022-11-21T12:23:24.079Z,0.40
2022-11-21T12:26:15.128Z,1.08
2022-11-21T12:29:12.212Z,0.60
2022-11-21T12:31:44.807Z,0.57
2022-11-21T12:34:21.993Z,0.28
2022-11-21T12:37:16.598Z,0.38
2022-11-21T12:40:30.907Z,0.32
2022-11-21T12:43:18.225Z,0.50
2022-11-21T12:46:10.776Z,0.30
2022-11-21T12:49:24.250Z,0.40
2022-11-21T12:52:12.356Z,0.30
2022-11-21T12:54:56.869Z,0.40
2022-11-21T12:57:50.416Z,0.50
2022-11-21T13:00:17.321Z,0.50
2022-11-21T13:03:20.676Z,0.70
2022-11-21T13:05:51.894Z,0.40
2022-11-21T13:08:24.618Z,0.50
2022-11-21T13:11:25.653Z,0.55
2022-11-21T13:14:02.382Z,0.60
2022-11-21T13:16:37.611Z,1.60
2022-11-21T13:19:17.836Z,1.65
2022-11-21T13:21:50.262Z,0.90
2022-11-21T13:24:47.198Z,1.40
2022-11-21T13:27:33.522Z,0.70
2022-11-21T13:30:09.189Z,0.80
2022-11-21T13:32:43.604Z,0.80
2022-11-21T13:35:19.524Z,0.70
2022-11-21T13:37:55.385Z,1.30
2022-11-21T13:40:30.642Z,0.88
2022-11-21T13:43:34.201Z,1.15
2022-11-21T13:46:02.147Z,1.17
2022-11-21T13:48:28.833Z,1.65
2022-11-21T13:51:10.845Z,0.85
2022-11-21T13:53:59.338Z,0.90
2022-11-21T13:56:31.072Z,2.20
2022-11-21T13:59:13.117Z,1.70
2022-11-21T14:02:21.898Z,0.82
2022-11-21T14:05:06.632Z,1.55
2022-11-21T14:07:37.185Z,1.10
2022-11-21T14:10:29.545Z,2.30
2022-11-21T14:12:57.281Z,0.95
2022-11-21T14:15:44.298Z,1.00
2022-11-21T14:18:25.207Z,0.95
2022-11-21T14:20:57.933Z,1.83
2022-11-21T14:23:28.365Z,3.97
2022-11-21T14:25:59.928Z,1.58
2022-11-21T14:28:35.308Z,1.38
2022-11-21T14:31:04.886Z,0.90
2022-11-21T14:33:33.304Z,1.73
2022-11-21T14:36:26.825Z,1.20
2022-11-21T14:39:28.693Z,0.70
2022-11-21T14:41:49.877Z,0.80
2022-11-21T14:44:19.157Z,1.00
2022-11-21T14:46:47.496Z,3.15
2022-11-21T14:49:17.256Z,2.47
2022-11-21T14:52:08.602Z,2.58
2022-11-21T14:55:06.083Z,1.38
2022-11-21T14:57:39.038Z,1.08
2022-11-21T15:00:07.401Z,2.40
2022-11-21T15:02:34.850Z,2.28
2022-11-21T15:05:05.566Z,1.60
2022-11-21T15:07:41.891Z,4.15
2022-11-21T15:10:36.335Z,3.20
2022-11-21T15:13:13.371Z,7.82
2022-11-21T15:15:43.875Z,1.40
2022-11-21T15:18:30.835Z,1.50
2022-11-21T15:21:01.321Z,2.28
2022-11-21T15:23:33.540Z,2.63
2022-11-21T15:26:01.637Z,1.63
2022-11-21T15:28:30.159Z,1.40
2022-11-21T15:31:20.231Z,2.00
2022-11-21T15:37:20.414Z,0.60
2022-11-21T15:39:50.308Z,0.90
2022-11-21T15:42:32.528Z,1.00
2022-11-21T15:48:01.025Z,3.05
2022-11-21T15:50:27.686Z,2.90
2022-11-21T15:52:54.765Z,1.90
2022-11-21T15:55:31.696Z,1.67
2022-11-21T15:57:13.500Z,1.27
2022-11-21T15:57:58.303Z,1.67
2022-11-21T16:00:25.007Z,5.53
2022-11-21T16:02:51.942Z,27.77
2022-11-21T16:05:18.546Z,1.98
2022-11-21T16:07:45.192Z,5.25
2022-11-21T16:10:19.867Z,5.65
2022-11-21T16:12:50.928Z,2.10
2022-11-21T16:15:17.543Z,2.88
2022-11-21T16:17:47.301Z,2.40
2022-11-21T16:20:14.570Z,4.97
2022-11-21T16:22:46.898Z,8.02
2022-11-21T16:25:13.697Z,10.73
2022-11-21T16:27:40.362Z,9.00
2022-11-21T16:30:07.800Z,8.52
2022-11-21T16:32:34.374Z,6.30
2022-11-21T16:35:01.084Z,4.38
2022-11-21T16:37:27.718Z,4.70
2022-11-21T16:39:54.328Z,4.25
2022-11-21T16:42:21.041Z,5.30
2022-11-21T16:44:48.180Z,4.07
2022-11-21T16:47:15.366Z,3.33
2022-11-21T16:49:48.262Z,2.90
2022-11-21T16:52:15.893Z,1.80
2022-11-21T16:54:42.603Z,2.05
2022-11-21T16:57:09.813Z,2.72
2022-11-21T16:59:36.598Z,3.13
2022-11-21T17:02:03.853Z,3.20
2022-11-21T17:04:33.300Z,4.38
2022-11-21T17:07:00.962Z,6.70
2022-11-21T17:09:27.661Z,7.55
2022-11-21T17:11:57.611Z,8.55
2022-11-21T17:14:24.355Z,11.63
2022-11-21T17:16:51.015Z,6.38
2022-11-21T17:19:17.596Z,9.32
2022-11-21T17:21:44.332Z,13.63
2022-11-21T17:24:12.963Z,14.75
2022-11-21T17:26:39.775Z,11.07
2022-11-21T17:29:06.454Z,10.98
2022-11-21T17:31:33.236Z,21.88
2022-11-21T17:34:00.840Z,18.20
2022-11-21T17:36:29.818Z,18.00
2022-11-21T17:38:56.499Z,28.20
2022-11-21T17:41:24.550Z,24.25
2022-11-21T17:43:55.559Z,11.82
2022-11-21T17:46:22.506Z,10.40
2022-11-21T17:48:55.011Z,9.00
2022-11-21T17:51:27.152Z,7.60
2022-11-21T17:53:54.387Z,6.68
2022-11-21T17:56:23.743Z,4.97
2022-11-21T17:58:51.172Z,4.03
2022-11-21T18:01:21.493Z,4.22
2022-11-21T18:03:53.970Z,4.97
2022-11-21T18:06:20.750Z,5.30
2022-11-21T18:08:48.484Z,6.03
2022-11-21T18:11:26.987Z,10.13
2022-11-21T18:13:53.699Z,7.88
2022-11-21T18:16:23.255Z,9.57
2022-11-21T18:18:50.495Z,8.38
2022-11-21T18:21:20.135Z,6.68
2022-11-21T18:23:47.480Z,7.13
2022-11-21T18:26:27.159Z,6.38
2022-11-21T18:29:20.494Z,5.60
2022-11-21T18:31:46.154Z,5.88
2022-11-21T18:34:12.782Z,7.53
2022-11-21T18:36:39.642Z,5.18
2022-11-21T18:39:14.028Z,4.93
2022-11-21T18:41:42.592Z,4.57
2022-11-21T18:44:10.116Z,4.35
2022-11-21T18:46:38.590Z,5.18
2022-11-21T18:49:07.254Z,5.28
2022-11-21T18:51:35.437Z,4.65
2022-11-21T18:54:08.702Z,4.85
2022-11-21T18:56:37.385Z,5.97
2022-11-21T18:59:06.056Z,7.30
2022-11-21T19:01:34.125Z,6.70
2022-11-21T19:04:01.052Z,6.72
2022-11-21T19:06:28.480Z,6.82
2022-11-21T19:08:57.554Z,6.18
2022-11-21T19:11:29.162Z,6.47
2022-11-21T19:13:57.187Z,7.72
2022-11-21T19:16:26.193Z,8.30
2022-11-21T19:21:43.788Z,4.57
2022-11-21T19:24:14.713Z,4.40
2022-11-21T19:26:42.123Z,3.13
2022-11-21T19:29:09.576Z,2.55
2022-11-21T19:31:41.008Z,3.20
2022-11-21T19:34:13.186Z,2.35
2022-11-21T19:36:40.115Z,2.60
2022-11-21T19:39:06.774Z,8.15
2022-11-21T19:41:33.453Z,4.72
2022-11-21T19:44:01.372Z,4.80
2022-11-21T19:46:33.102Z,4.60
2022-11-21T19:49:00.449Z,7.80
2022-11-21T19:51:36.026Z,6.15
2022-11-21T19:54:06.968Z,6.35
2022-11-21T19:56:34.630Z,5.75
2022-11-21T19:59:01.980Z,5.63
2022-11-21T20:01:31.055Z,4.88
2022-11-21T20:04:02.211Z,4.07
2022-11-21T20:06:37.819Z,4.32
2022-11-21T20:09:11.615Z,4.63
2022-11-21T20:11:43.695Z,5.75
2022-11-21T20:14:16.270Z,4.53
2022-11-21T20:16:51.604Z,3.28
2022-11-21T20:19:20.021Z,2.47
2022-11-21T20:21:47.210Z,2.38
2022-11-21T20:24:14.368Z,1.40
2022-11-21T20:26:41.760Z,2.10
2022-11-21T20:29:08.738Z,2.10
2022-11-21T20:31:37.349Z,2.33
2022-11-21T20:34:07.381Z,1.80
2022-11-21T20:36:36.593Z,2.20
2022-11-21T20:39:08.736Z,2.53
2022-11-21T20:41:36.666Z,2.28
2022-11-21T20:46:53.124Z,2.10
2022-11-21T20:49:19.736Z,3.40
2022-11-21T20:54:34.615Z,4.45
2022-11-21T20:57:01.536Z,3.55
2022-11-21T20:59:28.579Z,2.53
2022-11-21T21:01:55.599Z,2.92
2022-11-21T21:04:22.208Z,2.03
2022-11-21T21:06:48.883Z,2.28
2022-11-21T21:09:15.929Z,2.05
2022-11-21T21:11:51.995Z,1.92
2022-11-21T21:14:19.710Z,2.35
2022-11-21T21:16:46.691Z,2.13
2022-11-21T21:19:13.273Z,1.90
2022-11-21T21:21:41.710Z,1.98
2022-11-21T21:24:10.972Z,1.30
2022-11-21T21:26:42.902Z,1.52
2022-11-21T21:29:16.242Z,1.60
2022-11-21T21:31:49.935Z,1.40
2022-11-21T21:34:16.935Z,1.33
2022-11-21T21:36:43.622Z,1.52
2022-11-21T21:39:10.194Z,1.33
2022-11-21T21:41:40.047Z,0.90
2022-11-21T21:44:07.225Z,0.93
2022-11-21T21:46:34.016Z,1.13
2022-11-21T21:49:00.716Z,1.10
2022-11-21T21:51:29.463Z,1.38
2022-11-21T21:53:57.971Z,1.27
2022-11-21T21:56:27.128Z,1.13
2022-11-21T21:58:54.887Z,1.17
2022-11-21T22:01:24.402Z,1.20
2022-11-21T22:03:56.707Z,1.23
2022-11-21T22:06:23.884Z,1.30
2022-11-21T22:08:51.586Z,2.03
2022-11-21T22:11:20.677Z,1.10
2022-11-21T22:13:52.093Z,0.95
2022-11-21T22:16:18.781Z,1.40
2022-11-21T22:18:45.709Z,1.25
2022-11-21T22:21:39.040Z,1.00
2022-11-21T22:24:28.175Z,1.10
2022-11-21T22:26:55.215Z,0.80
2022-11-21T22:29:21.942Z,0.90
2022-11-21T22:31:48.482Z,1.08
2022-11-21T22:34:15.258Z,0.70
2022-11-21T22:36:42.238Z,1.50
2022-11-21T22:39:09.184Z,1.00
2022-11-21T22:41:37.217Z,0.90
2022-11-21T22:44:04.116Z,0.80
2022-11-21T22:46:31.570Z,0.73
2022-11-21T22:48:58.555Z,0.70
2022-11-21T22:51:29.640Z,0.90
2022-11-21T22:53:57.074Z,0.75
2022-11-21T22:56:24.803Z,0.60
2022-11-21T22:58:51.815Z,0.80
2022-11-21T23:01:21.951Z,0.68
2022-11-21T23:03:49.501Z,1.50
2022-11-21T23:06:17.726Z,3.15
2022-11-21T23:08:44.962Z,3.75
2022-11-21T23:11:23.088Z,3.28
2022-11-21T23:13:50.446Z,2.58
2022-11-21T23:16:17.794Z,1.50
2022-11-21T23:18:45.093Z,1.30
2022-11-21T23:21:13.417Z,1.88
2022-11-21T23:23:40.789Z,1.38
2022-11-21T23:26:07.892Z,2.03
2022-11-21T23:28:34.815Z,1.20
2022-11-21T23:31:01.458Z,1.70
2022-11-21T23:33:28.395Z,1.13
2022-11-21T23:35:55.094Z,1.10
2022-11-21T23:38:22.147Z,0.90
2022-11-21T23:40:49.829Z,1.20
2022-11-21T23:43:17.829Z,0.60
2022-11-21T23:45:45.563Z,0.80
2022-11-21T23:48:12.716Z,0.63
2022-11-21T23:50:39.468Z,0.70
2022-11-21T23:53:06.022Z,0.60
2022-11-21T23:55:32.699Z,0.57
2022-11-21T23:57:59.406Z,0.60
